Time;durP1;ratioP1;P1;durP2;ratioP2;P2;SDS_P1;SDS_P2;PMS_P1;PMS_P2;Temp;Humidity;BMP_temperature;BMP_pressure;BME280_temperature;BME280_humidity;BME280_pressure;Samples;Min_cycle;Max_cycle;Signal;HPM_P1;HPM_P2
2022/09/15 00:00:24;;;;;;;1.63;1.53;;;;;;;;;;5091253;28;20777;-72
2022/09/15 00:02:51;;;;;;;1.87;1.60;;;;;;;;;;5091636;28;20463;-73
2022/09/15 00:05:19;;;;;;;2.17;1.63;;;;;;;;;;5092231;28;20464;-73
2022/09/15 00:07:46;;;;;;;3.43;1.40;;;;;;;;;;5083529;28;20451;-73
2022/09/15 00:10:13;;;;;;;2.30;1.80;;;;;;;;;;5097243;28;20445;-72
2022/09/15 00:12:41;;;;;;;2.77;1.30;;;;;;;;;;5100419;28;20449;-72
2022/09/15 00:15:08;;;;;;;4.47;1.80;;;;;;;;;;5108078;28;20531;-73
2022/09/15 00:17:37;;;;;;;1.80;1.30;;;;;;;;;;5108531;28;20486;-74
2022/09/15 00:20:05;;;;;;;5.03;1.47;;;;;;;;;;5108192;28;20445;-74
2022/09/15 00:22:33;;;;;;;4.17;1.50;;;;;;;;;;5109999;28;20448;-73
2022/09/15 00:25:00;;;;;;;2.30;1.30;;;;;;;;;;5109005;28;20441;-73
2022/09/15 00:27:27;;;;;;;1.63;1.47;;;;;;;;;;5107841;28;20472;-73
2022/09/15 00:29:54;;;;;;;1.63;1.40;;;;;;;;;;5108687;28;20452;-72
2022/09/15 00:32:21;;;;;;;1.60;1.20;;;;;;;;;;5106109;28;20445;-72
2022/09/15 00:34:52;;;;;;;1.57;1.17;;;;;;;;;;5098531;28;20456;-72
2022/09/15 00:37:20;;;;;;;2.13;1.67;;;;;;;;;;5108303;28;20519;-72
2022/09/15 00:39:49;;;;;;;2.53;2.27;;;;;;;;;;5108191;28;20804;-72
2022/09/15 00:42:17;;;;;;;1.63;1.13;;;;;;;;;;5108740;28;20444;-72
2022/09/15 00:44:49;;;;;;;2.30;1.07;;;;;;;;;;5108225;28;20447;-73
2022/09/15 00:47:16;;;;;;;1.67;1.13;;;;;;;;;;5107365;28;20451;-71
2022/09/15 00:49:43;;;;;;;1.43;1.30;;;;;;;;;;5108092;28;20440;-73
2022/09/15 00:52:14;;;;;;;1.30;1.20;;;;;;;;;;5108061;28;20455;-73
2022/09/15 00:54:43;;;;;;;1.70;1.50;;;;;;;;;;5107404;28;20440;-73
2022/09/15 00:57:13;;;;;;;1.80;1.20;;;;;;;;;;5107318;28;20457;-73
2022/09/15 00:59:41;;;;;;;2.00;1.30;;;;;;;;;;5106377;28;20453;-72
2022/09/15 01:02:12;;;;;;;1.37;1.20;;;;;;;;;;5106974;28;20461;-72
2022/09/15 01:04:39;;;;;;;1.50;0.87;;;;;;;;;;5105330;28;20586;-72
2022/09/15 01:07:07;;;;;;;1.30;1.00;;;;;;;;;;5104803;28;20524;-72
2022/09/15 01:09:37;;;;;;;1.20;0.90;;;;;;;;;;5104228;28;20525;-73
2022/09/15 01:12:05;;;;;;;1.43;1.00;;;;;;;;;;5100962;28;20459;-72
2022/09/15 01:14:32;;;;;;;1.13;1.03;;;;;;;;;;5104438;28;20449;-73
2022/09/15 01:17:02;;;;;;;1.60;1.50;;;;;;;;;;5104836;28;20457;-72
2022/09/15 01:19:44;;;;;;;1.70;0.77;;;;;;;;;;5103627;28;20469;-73
2022/09/15 01:22:17;;;;;;;1.80;1.00;;;;;;;;;;5105026;28;20440;-73
2022/09/15 01:24:54;;;;;;;1.07;0.80;;;;;;;;;;5096874;28;20445;-72
2022/09/15 01:27:29;;;;;;;1.60;0.93;;;;;;;;;;5097501;28;20472;-72
2022/09/15 01:30:11;;;;;;;1.00;0.80;;;;;;;;;;5101299;28;20527;-73
2022/09/15 01:33:06;;;;;;;5.43;2.07;;;;;;;;;;5102177;28;20444;-72
2022/09/15 01:35:39;;;;;;;3.87;1.30;;;;;;;;;;5095278;28;20483;-73
2022/09/15 01:38:08;;;;;;;1.10;0.93;;;;;;;;;;5101482;28;20520;-73
2022/09/15 01:40:38;;;;;;;1.60;1.20;;;;;;;;;;5099448;28;20472;-73
2022/09/15 01:43:06;;;;;;;1.30;1.10;;;;;;;;;;5099126;28;20459;-72
2022/09/15 01:45:36;;;;;;;2.20;1.10;;;;;;;;;;5099905;28;20449;-72
2022/09/15 01:48:06;;;;;;;2.60;1.20;;;;;;;;;;5100319;28;20810;-72
2022/09/15 01:50:35;;;;;;;1.93;1.07;;;;;;;;;;5099331;28;20445;-72
2022/09/15 01:53:04;;;;;;;2.13;0.90;;;;;;;;;;5098010;28;20453;-73
2022/09/15 01:55:36;;;;;;;1.23;1.03;;;;;;;;;;5090303;28;20456;-72
2022/09/15 01:58:04;;;;;;;0.80;0.70;;;;;;;;;;5084310;28;20526;-72
2022/09/15 02:00:32;;;;;;;2.90;1.10;;;;;;;;;;5095645;28;20457;-72
2022/09/15 02:03:03;;;;;;;1.00;0.80;;;;;;;;;;5094830;28;20931;-72
2022/09/15 02:05:34;;;;;;;1.30;0.83;;;;;;;;;;5093526;28;20453;-72
2022/09/15 02:08:05;;;;;;;1.47;1.03;;;;;;;;;;5092873;28;20520;-73
2022/09/15 02:10:34;;;;;;;1.20;1.00;;;;;;;;;;5091813;28;20475;-73
2022/09/15 02:13:05;;;;;;;1.20;0.80;;;;;;;;;;5091987;28;20471;-72
2022/09/15 02:15:33;;;;;;;2.63;0.93;;;;;;;;;;5091736;28;20437;-72
2022/09/15 02:18:03;;;;;;;1.43;0.90;;;;;;;;;;5092352;28;20480;-72
2022/09/15 02:20:34;;;;;;;1.73;1.03;;;;;;;;;;5091787;28;20460;-72
2022/09/15 02:23:07;;;;;;;3.17;0.93;;;;;;;;;;5091916;28;20452;-72
2022/09/15 02:25:35;;;;;;;1.77;1.03;;;;;;;;;;5091434;28;20457;-71
2022/09/15 02:28:04;;;;;;;0.90;0.73;;;;;;;;;;5091931;28;20449;-72
2022/09/15 02:30:33;;;;;;;2.80;0.90;;;;;;;;;;5091394;28;20448;-72
2022/09/15 02:33:04;;;;;;;1.90;1.03;;;;;;;;;;5090968;28;20507;-72
2022/09/15 02:35:33;;;;;;;1.27;0.90;;;;;;;;;;5090210;28;20969;-73
2022/09/15 02:38:01;;;;;;;1.43;0.97;;;;;;;;;;5091172;28;20485;-72
2022/09/15 02:40:29;;;;;;;2.00;1.17;;;;;;;;;;5090714;28;20445;-71
2022/09/15 02:42:57;;;;;;;1.27;0.90;;;;;;;;;;5090686;28;20968;-72
2022/09/15 02:45:25;;;;;;;2.23;1.30;;;;;;;;;;5090581;28;20444;-72
2022/09/15 02:47:52;;;;;;;1.10;0.70;;;;;;;;;;5091271;28;20970;-73
2022/09/15 02:50:21;;;;;;;1.00;0.80;;;;;;;;;;5090588;28;20460;-72
2022/09/15 02:52:48;;;;;;;1.10;0.90;;;;;;;;;;5090906;28;20445;-72
2022/09/15 02:55:15;;;;;;;1.30;1.00;;;;;;;;;;5090336;28;20452;-71
2022/09/15 02:57:42;;;;;;;1.47;0.83;;;;;;;;;;5090783;28;20948;-73
2022/09/15 03:00:14;;;;;;;4.33;1.13;;;;;;;;;;5091209;28;20452;-73
2022/09/15 03:02:42;;;;;;;1.77;0.80;;;;;;;;;;5091119;28;20481;-73
2022/09/15 03:05:10;;;;;;;1.57;0.90;;;;;;;;;;5090329;28;20448;-73
2022/09/15 03:07:38;;;;;;;1.47;0.83;;;;;;;;;;5089989;28;20456;-73
2022/09/15 03:10:06;;;;;;;2.07;1.40;;;;;;;;;;5091119;28;20457;-73
2022/09/15 03:12:37;;;;;;;1.00;0.90;;;;;;;;;;5089380;28;20445;-73
2022/09/15 03:15:04;;;;;;;2.13;1.20;;;;;;;;;;5090423;28;20928;-73
2022/09/15 03:17:34;;;;;;;1.20;1.10;;;;;;;;;;5090788;28;20475;-73
2022/09/15 03:20:01;;;;;;;1.30;1.10;;;;;;;;;;5090545;28;21059;-73
2022/09/15 03:22:28;;;;;;;2.00;1.30;;;;;;;;;;5090801;28;20440;-73
2022/09/15 03:24:57;;;;;;;1.80;1.20;;;;;;;;;;5090783;28;20444;-73
2022/09/15 03:27:24;;;;;;;1.93;1.07;;;;;;;;;;5090153;28;20472;-73
2022/09/15 03:29:51;;;;;;;1.60;0.80;;;;;;;;;;5090653;28;20464;-73
2022/09/15 03:32:18;;;;;;;1.10;0.90;;;;;;;;;;5090479;28;20448;-73
2022/09/15 03:34:45;;;;;;;1.00;0.73;;;;;;;;;;5090268;28;20449;-73
2022/09/15 03:37:13;;;;;;;1.40;0.87;;;;;;;;;;5091091;28;20445;-73
2022/09/15 03:39:40;;;;;;;1.13;0.70;;;;;;;;;;5094030;28;20495;-73
2022/09/15 03:42:08;;;;;;;1.53;1.20;;;;;;;;;;5098706;28;20983;-74
2022/09/15 03:44:36;;;;;;;4.93;1.10;;;;;;;;;;5097817;28;20460;-74
2022/09/15 03:47:03;;;;;;;1.57;0.90;;;;;;;;;;5092700;28;20856;-74
2022/09/15 03:49:30;;;;;;;2.87;0.80;;;;;;;;;;5089460;28;20459;-73
2022/09/15 03:51:58;;;;;;;1.00;0.70;;;;;;;;;;5091354;28;20464;-74
2022/09/15 03:54:25;;;;;;;1.73;1.30;;;;;;;;;;5089986;28;20514;-73
2022/09/15 03:56:52;;;;;;;1.60;1.00;;;;;;;;;;5090908;28;20444;-73
2022/09/15 03:59:21;;;;;;;1.93;1.13;;;;;;;;;;5090474;28;20482;-73
2022/09/15 04:01:49;;;;;;;1.60;1.00;;;;;;;;;;5090754;28;20441;-73
2022/09/15 04:04:16;;;;;;;1.67;0.70;;;;;;;;;;5090808;28;20456;-73
2022/09/15 04:06:43;;;;;;;1.37;0.77;;;;;;;;;;5093874;28;20895;-73
2022/09/15 04:09:11;;;;;;;1.13;0.73;;;;;;;;;;5093915;28;20820;-74
2022/09/15 04:11:39;;;;;;;1.20;0.83;;;;;;;;;;5093631;28;20459;-73
2022/09/15 04:14:06;;;;;;;1.67;1.10;;;;;;;;;;5093685;28;20452;-76
2022/09/15 04:16:35;;;;;;;2.10;1.07;;;;;;;;;;5093408;28;20801;-73
2022/09/15 04:19:02;;;;;;;1.60;1.13;;;;;;;;;;5093945;28;20471;-72
2022/09/15 04:21:30;;;;;;;1.60;0.87;;;;;;;;;;5094074;28;20445;-73
2022/09/15 04:23:58;;;;;;;1.33;1.03;;;;;;;;;;5093429;28;20449;-73
2022/09/15 04:26:26;;;;;;;1.50;1.10;;;;;;;;;;5092958;28;20471;-74
2022/09/15 04:28:54;;;;;;;1.07;0.80;;;;;;;;;;5090806;28;20487;-76
2022/09/15 04:31:21;;;;;;;1.83;1.10;;;;;;;;;;5093828;28;20452;-77
2022/09/15 04:33:52;;;;;;;1.53;1.17;;;;;;;;;;5093267;28;20455;-75
2022/09/15 04:36:21;;;;;;;2.80;1.10;;;;;;;;;;5091090;28;20476;-74
2022/09/15 04:38:49;;;;;;;1.77;0.90;;;;;;;;;;5094520;28;20598;-74
2022/09/15 04:41:16;;;;;;;1.10;0.63;;;;;;;;;;5093763;28;20441;-75
2022/09/15 04:43:44;;;;;;;1.47;0.90;;;;;;;;;;5093785;28;20963;-76
2022/09/15 04:46:11;;;;;;;2.20;0.97;;;;;;;;;;5093883;28;20453;-76
2022/09/15 04:48:38;;;;;;;3.20;1.33;;;;;;;;;;5093729;28;20498;-76
2022/09/15 04:51:08;;;;;;;1.47;1.03;;;;;;;;;;5093802;28;20829;-76
2022/09/15 04:53:36;;;;;;;2.37;1.03;;;;;;;;;;5093369;28;20884;-77
2022/09/15 04:56:04;;;;;;;1.10;0.80;;;;;;;;;;5093615;28;20460;-78
2022/09/15 04:58:31;;;;;;;2.67;0.97;;;;;;;;;;5092197;28;20517;-71
2022/09/15 05:00:58;;;;;;;1.93;1.20;;;;;;;;;;5093361;28;20441;-74
2022/09/15 05:03:25;;;;;;;1.40;1.10;;;;;;;;;;5092709;28;20475;-74
2022/09/15 05:05:52;;;;;;;2.20;1.10;;;;;;;;;;5092631;28;20457;-74
2022/09/15 05:08:21;;;;;;;1.73;1.10;;;;;;;;;;5092491;28;20832;-74
2022/09/15 05:10:48;;;;;;;1.37;0.70;;;;;;;;;;5093029;28;20457;-74
2022/09/15 05:13:15;;;;;;;3.63;1.17;;;;;;;;;;5092833;28;20449;-72
2022/09/15 05:15:42;;;;;;;1.00;0.70;;;;;;;;;;5093224;28;20805;-74
2022/09/15 05:18:09;;;;;;;1.13;0.90;;;;;;;;;;5094032;28;20448;-74
2022/09/15 05:20:36;;;;;;;1.00;0.80;;;;;;;;;;5093199;28;20813;-74
2022/09/15 05:23:03;;;;;;;0.90;0.80;;;;;;;;;;5093622;28;20449;-75
2022/09/15 05:25:32;;;;;;;1.30;0.70;;;;;;;;;;5092688;28;20445;-74
2022/09/15 05:27:59;;;;;;;2.87;1.03;;;;;;;;;;5092993;28;20453;-74
2022/09/15 05:30:26;;;;;;;2.93;1.07;;;;;;;;;;5092848;28;20453;-75
2022/09/15 05:32:53;;;;;;;1.10;0.80;;;;;;;;;;5093319;28;20445;-74
2022/09/15 05:35:22;;;;;;;1.37;0.93;;;;;;;;;;5091912;28;20457;-74
2022/09/15 05:37:49;;;;;;;1.77;1.07;;;;;;;;;;5093070;28;20457;-74
2022/09/15 05:40:19;;;;;;;1.13;0.90;;;;;;;;;;5079329;28;20762;-74
2022/09/15 05:42:47;;;;;;;2.00;1.17;;;;;;;;;;5093215;28;20502;-74
2022/09/15 05:45:15;;;;;;;1.50;0.90;;;;;;;;;;5092806;28;20472;-72
2022/09/15 05:47:42;;;;;;;1.70;0.80;;;;;;;;;;5092695;28;20944;-74
2022/09/15 05:50:11;;;;;;;1.87;0.90;;;;;;;;;;5093647;28;20452;-74
2022/09/15 05:52:38;;;;;;;1.10;0.80;;;;;;;;;;5092598;28;20850;-75
2022/09/15 05:55:05;;;;;;;1.60;0.73;;;;;;;;;;5092664;28;20445;-74
2022/09/15 05:57:32;;;;;;;1.00;0.73;;;;;;;;;;5091787;28;20445;-75
2022/09/15 06:00:01;;;;;;;1.67;1.00;;;;;;;;;;5092815;28;20525;-74
2022/09/15 06:02:28;;;;;;;1.67;0.90;;;;;;;;;;5092061;28;20455;-74
2022/09/15 06:04:55;;;;;;;1.47;0.93;;;;;;;;;;5092874;28;20884;-75
2022/09/15 06:07:22;;;;;;;1.87;1.10;;;;;;;;;;5091565;28;20453;-75
2022/09/15 06:09:50;;;;;;;1.03;0.90;;;;;;;;;;5092553;28;20457;-75
2022/09/15 06:12:17;;;;;;;1.30;0.70;;;;;;;;;;5091845;28;20797;-74
2022/09/15 06:14:49;;;;;;;1.93;0.80;;;;;;;;;;5092055;28;20964;-74
2022/09/15 06:17:17;;;;;;;1.23;0.70;;;;;;;;;;5091883;28;20777;-74
2022/09/15 06:19:44;;;;;;;0.97;0.83;;;;;;;;;;5092572;28;20584;-74
2022/09/15 06:22:12;;;;;;;1.30;0.83;;;;;;;;;;5092286;28;20451;-75
2022/09/15 06:24:39;;;;;;;1.40;0.90;;;;;;;;;;5091230;28;20437;-74
2022/09/15 06:27:06;;;;;;;1.10;0.60;;;;;;;;;;5091328;28;20468;-74
2022/09/15 06:29:35;;;;;;;0.77;0.63;;;;;;;;;;5091532;28;20456;-74
2022/09/15 06:32:03;;;;;;;2.63;1.07;;;;;;;;;;5092151;28;20459;-74
2022/09/15 06:34:32;;;;;;;1.53;0.80;;;;;;;;;;5091199;28;20469;-74
2022/09/15 06:36:59;;;;;;;3.90;0.97;;;;;;;;;;5092095;28;20449;-72
2022/09/15 06:39:26;;;;;;;4.00;0.90;;;;;;;;;;5090790;28;20484;-70
2022/09/15 06:41:53;;;;;;;0.87;0.60;;;;;;;;;;5091582;28;20440;-70
2022/09/15 06:44:21;;;;;;;1.70;0.57;;;;;;;;;;5090445;28;20449;-70
2022/09/15 06:46:48;;;;;;;2.20;0.83;;;;;;;;;;5091102;28;20441;-70
2022/09/15 06:49:15;;;;;;;2.50;0.93;;;;;;;;;;5090955;28;20451;-70
2022/09/15 06:51:44;;;;;;;1.00;0.80;;;;;;;;;;5091601;28;20445;-69
2022/09/15 06:54:11;;;;;;;1.93;1.03;;;;;;;;;;5091157;28;20460;-69
2022/09/15 06:56:38;;;;;;;1.20;0.97;;;;;;;;;;5090504;28;20449;-69
2022/09/15 06:59:05;;;;;;;1.50;0.80;;;;;;;;;;5090644;28;20455;-69
2022/09/15 07:01:33;;;;;;;1.10;0.87;;;;;;;;;;5090872;28;20468;-70
2022/09/15 07:04:01;;;;;;;1.30;0.97;;;;;;;;;;5090795;28;20456;-69
2022/09/15 07:06:29;;;;;;;1.57;0.70;;;;;;;;;;5090298;28;20441;-70
2022/09/15 07:08:58;;;;;;;2.30;0.90;;;;;;;;;;5091233;28;20452;-69
2022/09/15 07:11:25;;;;;;;4.00;0.80;;;;;;;;;;5090308;28;20862;-69
2022/09/15 07:13:53;;;;;;;2.23;0.90;;;;;;;;;;5090568;28;20455;-69
2022/09/15 07:16:21;;;;;;;2.37;1.13;;;;;;;;;;5090088;28;20448;-69
2022/09/15 07:18:48;;;;;;;2.47;0.90;;;;;;;;;;5091144;28;20452;-69
2022/09/15 07:21:16;;;;;;;1.40;0.80;;;;;;;;;;5090459;28;20492;-69
2022/09/15 07:23:44;;;;;;;2.23;0.90;;;;;;;;;;5090938;28;20939;-69
2022/09/15 07:26:13;;;;;;;1.47;1.07;;;;;;;;;;5090354;28;20487;-69
2022/09/15 07:28:41;;;;;;;1.53;0.80;;;;;;;;;;5090565;28;20916;-69
2022/09/15 07:31:09;;;;;;;1.30;0.80;;;;;;;;;;5091016;28;20448;-69
2022/09/15 07:33:36;;;;;;;4.50;1.20;;;;;;;;;;5090242;28;20753;-69
2022/09/15 07:36:04;;;;;;;1.10;0.70;;;;;;;;;;5090749;28;20459;-69
2022/09/15 07:38:32;;;;;;;2.60;1.20;;;;;;;;;;5091697;28;20452;-68
2022/09/15 07:41:03;;;;;;;1.30;0.70;;;;;;;;;;5094899;28;20484;-69
2022/09/15 07:43:32;;;;;;;1.03;0.80;;;;;;;;;;5094340;28;20463;-69
2022/09/15 07:45:59;;;;;;;0.83;0.70;;;;;;;;;;5094632;28;20471;-68
2022/09/15 07:48:26;;;;;;;2.27;1.10;;;;;;;;;;5094360;28;20789;-69
2022/09/15 07:50:53;;;;;;;2.03;1.00;;;;;;;;;;5095006;28;20456;-69
2022/09/15 07:53:20;;;;;;;1.90;1.10;;;;;;;;;;5094443;28;20444;-69
2022/09/15 07:55:52;;;;;;;1.20;0.90;;;;;;;;;;5094404;28;20448;-68
2022/09/15 07:58:19;;;;;;;2.30;0.80;;;;;;;;;;5094271;28;20448;-69
2022/09/15 08:00:47;;;;;;;0.90;0.60;;;;;;;;;;5094697;28;20843;-67
2022/09/15 08:03:15;;;;;;;1.17;0.70;;;;;;;;;;5094372;28;20444;-68
2022/09/15 08:05:42;;;;;;;1.87;0.80;;;;;;;;;;5094419;28;20593;-68
2022/09/15 08:08:09;;;;;;;1.70;0.80;;;;;;;;;;5094716;28;20452;-67
2022/09/15 08:10:39;;;;;;;1.10;0.90;;;;;;;;;;5093992;28;20448;-67
2022/09/15 08:13:06;;;;;;;1.10;0.70;;;;;;;;;;5094038;28;20456;-67
2022/09/15 08:15:36;;;;;;;1.37;0.70;;;;;;;;;;5093008;28;20812;-67
2022/09/15 08:18:04;;;;;;;1.00;0.77;;;;;;;;;;5094678;28;20444;-67
2022/09/15 08:20:31;;;;;;;1.37;0.90;;;;;;;;;;5093619;28;20839;-67
2022/09/15 08:22:59;;;;;;;1.73;0.70;;;;;;;;;;5094429;28;20460;-67
2022/09/15 08:25:26;;;;;;;1.37;0.80;;;;;;;;;;5093001;28;20951;-67
2022/09/15 08:27:55;;;;;;;1.10;0.60;;;;;;;;;;5094269;28;20473;-67
2022/09/15 08:30:22;;;;;;;1.93;0.90;;;;;;;;;;5093219;28;20518;-67
2022/09/15 08:32:49;;;;;;;1.67;0.83;;;;;;;;;;5094122;28;20537;-67
2022/09/15 08:35:18;;;;;;;1.40;1.20;;;;;;;;;;5093148;28;20936;-67
2022/09/15 08:37:45;;;;;;;1.00;0.80;;;;;;;;;;5093829;28;20452;-67
2022/09/15 08:40:16;;;;;;;0.90;0.70;;;;;;;;;;5093963;28;20834;-67
2022/09/15 08:42:44;;;;;;;2.80;1.00;;;;;;;;;;5093716;28;20440;-67
2022/09/15 08:45:19;;;;;;;0.90;0.70;;;;;;;;;;5093335;28;20911;-67
2022/09/15 08:47:47;;;;;;;1.00;0.70;;;;;;;;;;5093519;28;20929;-67
2022/09/15 08:50:20;;;;;;;0.90;0.60;;;;;;;;;;5093569;28;20470;-67
2022/09/15 08:52:51;;;;;;;1.10;0.70;;;;;;;;;;5093795;28;20523;-67
2022/09/15 08:55:19;;;;;;;1.23;1.00;;;;;;;;;;5092841;28;20497;-67
2022/09/15 08:57:46;;;;;;;0.80;0.50;;;;;;;;;;5093026;28;20456;-67
2022/09/15 09:00:15;;;;;;;1.20;0.80;;;;;;;;;;5093290;28;20483;-67
2022/09/15 09:03:00;;;;;;;1.20;0.70;;;;;;;;;;5093593;28;20789;-67
2022/09/15 09:05:35;;;;;;;1.10;0.60;;;;;;;;;;5091639;28;20530;-68
2022/09/15 09:08:17;;;;;;;1.47;0.87;;;;;;;;;;5093202;28;20444;-68
2022/09/15 09:10:49;;;;;;;1.50;0.90;;;;;;;;;;5091258;28;20547;-68
2022/09/15 09:13:23;;;;;;;4.57;0.90;;;;;;;;;;5092561;28;20444;-68
2022/09/15 09:15:57;;;;;;;1.80;0.77;;;;;;;;;;5092630;28;20445;-68
2022/09/15 09:18:33;;;;;;;1.00;0.90;;;;;;;;;;5092759;28;20445;-69
2022/09/15 09:21:05;;;;;;;1.37;0.80;;;;;;;;;;5092973;28;20479;-69
2022/09/15 09:23:34;;;;;;;0.97;0.73;;;20.90;99.90;;;;;;5092210;28;20569;-69
2022/09/15 09:26:02;;;;;;;1.93;0.93;;;;;;;;;;5092491;28;20475;-68
2022/09/15 09:28:30;;;;;;;2.27;0.93;;;;;;;;;;5092481;28;20794;-69
2022/09/15 09:31:00;;;;;;;0.80;0.60;;;;;;;;;;5092859;28;20447;-69
2022/09/15 09:33:29;;;;;;;1.00;0.63;;;;;;;;;;5092089;28;20449;-69
2022/09/15 09:35:58;;;;;;;1.40;1.13;;;;;;;;;;5092668;28;20445;-69
2022/09/15 09:38:26;;;;;;;1.10;0.73;;;;;;;;;;5092236;28;20460;-69
2022/09/15 09:40:53;;;;;;;1.67;1.00;;;;;;;;;;5092812;28;20491;-69
2022/09/15 09:43:22;;;;;;;0.90;0.50;;;;;;;;;;5091758;28;20456;-69
2022/09/15 09:45:49;;;;;;;1.33;0.70;;;;;;;;;;5092309;28;20441;-69
2022/09/15 09:48:19;;;;;;;1.17;0.73;;;;;;;;;;5092007;28;20456;-67
2022/09/15 09:50:48;;;;;;;1.97;0.70;;;;;;;;;;5092653;28;20498;-67
2022/09/15 09:53:18;;;;;;;0.80;0.50;;;;;;;;;;5078885;28;20481;-67
2022/09/15 09:55:45;;;;;;;1.60;0.90;;;;;;;;;;5092411;28;20491;-70
2022/09/15 09:58:14;;;;;;;1.07;0.70;;;;;;;;;;5092498;28;20441;-69
2022/09/15 10:00:42;;;;;;;1.17;0.60;;;;;;;;;;5092106;28;20476;-69
2022/09/15 10:03:11;;;;;;;0.80;0.50;;;;;;;;;;5091714;28;20445;-69
2022/09/15 10:05:38;;;;;;;1.63;0.50;;;;;;;;;;5090901;28;20456;-69
2022/09/15 10:08:06;;;;;;;1.03;0.67;;;;;;;;;;5092254;28;20457;-69
2022/09/15 10:10:33;;;;;;;0.70;0.40;;;;;;;;;;5091557;28;20453;-69
2022/09/15 10:13:02;;;;;;;0.70;0.40;;;;;;;;;;5091783;28;20448;-70
2022/09/15 10:15:32;;;;;;;1.03;0.60;;;;;;;;;;5091229;28;20440;-69
2022/09/15 10:18:02;;;;;;;1.57;0.60;;;;;;;;;;5092585;28;20859;-69
2022/09/15 10:20:32;;;;;;;0.70;0.40;;;;;;;;;;5091329;28;20837;-69
2022/09/15 10:23:02;;;;;;;0.70;0.50;;;;;;;;;;5092198;28;20498;-69
2022/09/15 10:25:31;;;;;;;1.00;0.50;;;;;;;;;;5090618;28;20444;-69
2022/09/15 10:28:12;;;;;;;1.27;0.60;;;;;;;;;;5091947;28;20479;-68
2022/09/15 10:30:40;;;;;;;0.70;0.50;;;;;;;;;;5079146;28;20528;-69
2022/09/15 10:33:22;;;;;;;0.80;0.40;;;;;;;;;;5091834;28;20936;-70
2022/09/15 10:35:51;;;;;;;1.33;0.60;;;;;;;;;;5088565;28;20461;-68
2022/09/15 10:38:22;;;;;;;0.70;0.40;;;;;;;;;;5090884;28;20441;-68
2022/09/15 10:40:55;;;;;;;0.83;0.40;;;;;;;;;;5091859;28;20480;-69
2022/09/15 10:43:29;;;;;;;0.80;0.40;;;;;;;;;;5091095;28;20464;-68
2022/09/15 10:46:01;;;;;;;1.17;0.83;;;;;;;;;;5091345;28;20446;-68
2022/09/15 10:48:34;;;;;;;1.77;0.50;;;;;;;;;;5077766;28;20441;-68
2022/09/15 10:51:07;;;;;;;1.10;0.60;;;;;;;;;;5091593;28;20452;-68
2022/09/15 10:53:41;;;;;;;1.10;0.70;;;;;;;;;;5091035;28;20558;-68
2022/09/15 10:56:14;;;;;;;0.87;0.50;;;;;;;;;;5091112;28;20448;-68
2022/09/15 10:58:49;;;;;;;1.53;0.73;;;;;;;;;;5091462;28;20441;-68
2022/09/15 11:01:31;;;;;;;1.10;0.93;;;;;;;;;;5090835;28;20471;-69
2022/09/15 11:04:22;;;;;;;1.53;0.93;;;;;;;;;;5091014;28;20957;-68
2022/09/15 11:06:56;;;;;;;5.10;1.50;;;;;;;;;;5091166;28;21019;-68
2022/09/15 11:09:24;;;;;;;1.30;1.20;;;;;;;;;;5090532;28;20927;-68
2022/09/15 11:11:59;;;;;;;9.27;1.47;;;;;;;;;;5091402;28;20441;-68
2022/09/15 11:14:37;;;;;;;6.10;1.33;;;;;;;;;;5090098;28;20458;-68
2022/09/15 11:17:14;;;;;;;1.67;1.40;;;;;;;;;;5091281;28;20451;-68
2022/09/15 11:19:48;;;;;;;2.30;1.47;;;;;;;;;;5091420;28;20793;-68
2022/09/15 11:22:18;;;;;;;1.63;1.53;;;;;;;;;;5090611;28;20947;-69
2022/09/15 11:24:48;;;;;;;2.90;1.40;;;;;;;;;;5090760;28;20444;-68
2022/09/15 11:27:19;;;;;;;1.90;1.43;;;;;;;;;;5090798;28;20475;-69
2022/09/15 11:30:00;;;;;;;1.90;1.70;;;;;;;;;;5091146;28;20445;-69
2022/09/15 11:32:29;;;;;;;1.77;1.57;;;;;;;;;;5079065;28;20445;-69
2022/09/15 11:34:58;;;;;;;2.03;1.50;;;;;;;;;;5090584;28;20455;-69
2022/09/15 11:37:30;;;;;;;3.10;1.43;;;;;;;;;;5090524;28;20456;-69
2022/09/15 11:40:00;;;;;;;1.83;1.60;;;;;;;;;;5090994;28;20448;-69
2022/09/15 11:42:31;;;;;;;3.00;1.30;;;;;;;;;;5090647;28;20828;-69
2022/09/15 11:45:00;;;;;;;2.10;1.50;;;;;;;;;;5090500;28;20464;-69
2022/09/15 11:47:29;;;;;;;2.97;1.40;;;;;;;;;;5090504;28;20483;-69
2022/09/15 11:49:57;;;;;;;2.97;1.27;;;;;;;;;;5090857;28;20452;-69
2022/09/15 11:52:34;;;;;;;2.07;1.30;;;;;;;;;;5090272;28;20460;-69
2022/09/15 11:55:03;;;;;;;2.13;1.63;;;;;;;;;;5077269;28;20444;-69
2022/09/15 11:57:32;;;;;;;1.90;1.50;;;;;;;;;;5090286;28;20449;-69
2022/09/15 12:00:03;;;;;;;2.73;1.70;;;;;;;;;;5090356;28;20448;-69
2022/09/15 12:02:34;;;;;;;2.97;2.10;;;;;;;;;;5090240;28;20900;-69
2022/09/15 12:05:08;;;;;;;2.10;1.63;;;;;;;;;;5090172;28;20448;-69
2022/09/15 12:07:39;;;;;;;2.53;1.70;;;;;;;;;;5089895;28;20452;-70
2022/09/15 12:10:13;;;;;;;4.03;2.40;;;;;;;;;;5090569;28;20441;-69
2022/09/15 12:12:41;;;;;;;3.77;1.77;;;;;;;;;;5078134;28;20525;-69
2022/09/15 12:15:14;;;;;;;1.83;1.60;;;;;;;;;;5090274;28;20456;-69
2022/09/15 12:17:44;;;;;;;2.80;2.03;;;;;;;;;;5091445;28;20441;-69
2022/09/15 12:20:13;;;;;;;1.50;1.10;;;;;;;;;;5092073;28;20958;-69
2022/09/15 12:22:43;;;;;;;2.33;1.70;;;;;;;;;;5095751;28;20502;-69
2022/09/15 12:25:13;;;;;;;2.43;2.10;;;;;;;;;;5097226;28;20449;-68
2022/09/15 12:27:40;;;;;;;3.43;1.50;;;;;;;;;;5103330;28;20499;-68
2022/09/15 12:30:29;;;;;;;3.13;1.53;;;;;;;;;;5103490;28;20445;-69
2022/09/15 12:32:58;;;;;;;3.20;1.70;;;;;;;;;;5105195;28;20449;-68
2022/09/15 12:35:32;;;;;;;4.10;1.97;;;;;;;;;;5104948;28;20453;-68
2022/09/15 12:38:00;;;;;;;2.40;1.80;;;;;;;;;;5108697;28;20441;-69
2022/09/15 12:40:33;;;;;;;2.37;1.60;;;;;;;;;;5107513;28;20443;-69
2022/09/15 12:43:01;;;;;;;2.53;1.67;;;;;;;;;;5108630;28;20472;-68
2022/09/15 12:45:29;;;;;;;2.70;1.43;;;;;;;;;;5101227;28;20767;-69
2022/09/15 12:48:02;;;;;;;1.93;1.63;;;;;;;;;;5099244;28;20464;-69
2022/09/15 12:50:31;;;;;;;3.63;2.23;;;;;;;;;;5099520;28;20441;-69
2022/09/15 12:53:00;;;;;;;3.43;2.03;;;;;;;;;;5097742;28;20781;-69
2022/09/15 12:55:30;;;;;;;2.97;2.07;;;;;;;;;;5092986;28;20971;-70
2022/09/15 12:57:58;;;;;;;2.03;1.80;;;;;;;;;;5093553;28;20449;-70
2022/09/15 13:00:31;;;;;;;1.90;1.50;;;;;;;;;;5093287;28;20452;-70
2022/09/15 13:03:00;;;;;;;2.63;1.70;;;;;;;;;;5080474;28;20560;-70
2022/09/15 13:05:46;;;;;;;2.77;1.90;;;;;;;;;;5092482;28;20460;-70
2022/09/15 13:08:14;;;;;;;2.77;1.57;;;;;;;;;;5093706;28;20471;-70
2022/09/15 13:10:44;;;;;;;3.40;1.80;;;;;;;;;;5093759;28;20452;-71
2022/09/15 13:13:15;;;;;;;2.23;1.60;;;;;;;;;;5093480;28;20981;-70
2022/09/15 13:15:44;;;;;;;2.90;1.53;;;;;;;;;;5092857;28;20924;-70
2022/09/15 13:18:14;;;;;;;2.67;1.80;;;;;;;;;;5093527;28;20603;-70
2022/09/15 13:20:44;;;;;;;2.50;1.30;;;;;;;;;;5093244;28;20448;-70
2022/09/15 13:23:14;;;;;;;3.20;1.97;;;;;;;;;;5093418;28;20480;-71
2022/09/15 13:25:45;;;;;;;2.30;1.67;;;;;;;;;;5079138;28;20801;-70
2022/09/15 13:28:13;;;;;;;4.17;2.30;;;;;;;;;;5093373;28;20810;-71
2022/09/15 13:30:45;;;;;;;2.13;1.70;;;;;;;;;;5093322;28;20441;-71
2022/09/15 13:33:22;;;;;;;1.87;1.60;;;;;;;;;;5093348;28;20449;-71
2022/09/15 13:35:58;;;;;;;2.03;1.57;;;;;;;;;;5092505;28;20448;-71
2022/09/15 13:38:50;;;;;;;2.87;1.70;;;;;;;;;;5092469;28;20453;-71
2022/09/15 13:41:35;;;;;;;2.07;1.50;;;;;;;;;;5092114;28;20447;-71
2022/09/15 13:44:17;;;;;;;3.30;2.13;;;;;;;;;;5092705;28;20796;-73
2022/09/15 13:46:50;;;;;;;1.93;1.30;;;;;;;;;;5035826;28;20498;-72
2022/09/15 13:49:31;;;;;;;5.90;2.00;;;;;;;;;;5092161;28;20811;-72
2022/09/15 13:52:01;;;;;;;3.20;2.00;;;;;;;;;;5092930;28;20491;-72
2022/09/15 13:54:29;;;;;;;2.90;2.67;;;;;;;;;;5091834;28;20551;-72
2022/09/15 13:56:59;;;;;;;3.67;1.93;;;;;;;;;;5092733;28;20536;-73
2022/09/15 13:59:28;;;;;;;2.57;1.80;;;;;;;;;;5091897;28;20455;-73
2022/09/15 14:01:56;;;;;;;3.13;1.50;;;;;;;;;;5092717;28;20488;-75
2022/09/15 14:04:26;;;;;;;3.27;1.77;;;;;;;;;;5091547;28;20452;-73
2022/09/15 14:06:54;;;;;;;1.97;1.20;;;;;;;;;;5092808;28;20540;-73
2022/09/15 14:09:24;;;;;;;1.87;1.50;;;;;;;;;;5092005;28;20454;-73
2022/09/15 14:11:52;;;;;;;2.50;1.10;;;;;;;;;;5092133;28;20453;-73
2022/09/15 14:14:30;;;;;;;2.00;1.23;;;;;;;;;;5091096;28;20449;-74
2022/09/15 14:16:57;;;;;;;2.03;1.83;;;;;;;;;;5092138;28;20933;-74
2022/09/15 14:19:32;;;;;;;1.50;1.20;;;;;;;;;;5091563;28;20452;-73
2022/09/15 14:21:59;;;;;;;1.87;1.60;;;;;;;;;;5092243;28;20564;-74
2022/09/15 14:24:27;;;;;;;1.87;1.60;;;;;;;;;;5091395;28;20455;-74
2022/09/15 14:26:55;;;;;;;2.53;1.97;;;;;;;;;;5092173;28;21002;-74
2022/09/15 14:29:24;;;;;;;5.10;1.80;;;;;;;;;;5091719;28;20449;-74
2022/09/15 14:31:52;;;;;;;2.20;1.40;;;;;;;;;;5091973;28;20944;-74
2022/09/15 14:34:20;;;;;;;8.10;2.07;;;;;;;;;;5091289;28;20510;-73
2022/09/15 14:36:55;;;;;;;1.60;1.50;;;;;;;;;;5091630;28;20798;-73
2022/09/15 14:39:22;;;;;;;2.47;1.67;;;;;;;;;;5091899;28;20460;-73
2022/09/15 14:41:50;;;;;;;3.03;2.10;;;;;;;;;;5091847;28;20491;-73
2022/09/15 14:44:35;;;;;;;2.10;1.83;;;;;;;;;;5090804;28;20459;-72
2022/09/15 14:47:10;;;;;;;2.13;1.90;;;;;;;;;;5091958;28;20451;-73
2022/09/15 14:49:37;;;;;;;1.80;1.50;;;;;;;;;;5090737;28;20448;-74
2022/09/15 14:52:16;;;;;;;2.07;1.87;;;;;;;;;;5091657;28;20456;-73
2022/09/15 14:54:43;;;;;;;1.67;1.50;;;;;;;;;;5091612;28;20433;-74
2022/09/15 14:57:11;;;;;;;2.53;2.20;;;;;;;;;;5092131;28;20449;-74